aviador You're here:

MMPA Decoded Metar

POZA RICO in MEXICO
Report Time2017-11-24 19:43:00
UTC Time2017-11-24 20:12:08
Flight Rules vfr VFR
WindCalm
Visibility9656 m
Phenomena:N/A
Clouds:N/A
Expected CloudBase > 5,200 ft AGL from Temp-Dew spread
CeilingNone
Temp28°C (ISA +14)
Dew Point15°C (45% RH)
Heat Index28.0°C
QNH1017 hPa
Density Alt2,162 ft
Elevation466 ft
Report Wrong Elevation
Raw Report
MMPA 241943Z 00000KT 6SM SKC 28/15 A3002 RMK HZY PRESSFR=

Extra information for MMPA:More info

Metar Taf Metar & Taf Last 4 Metars F.Rules Stats Wind Profile Meteogram Temp Stats Airport Information Weather charts Add Link Nearby VenuesMetar ALERT Operation Metar Decoded Social comments